Flight Track Log - Related Links

Times and Time Zones

All times are in EDT time to prevent confusion due to time zone crossing. See the UPS238 flight status page for this flight to view local times or setup timezone preferences in your user account.


Time Position Orientation Groundspeed Altitude Reporting Facility
EDT Latitude Longitude Course Direction KTS MPH feet Rate Location/Type
Fri 07:55:00 PM 55.0323 -18.1495 293° West  Level Estimated
Fri 07:56:00 PM 55.0500 -18.3580 278° West  Level Estimated
Fri 07:57:00 PM 55.0673 -18.5667 278° West  Level Estimated
Fri 07:58:00 PM 55.0842 -18.7755 278° West  Level Estimated
Fri 07:59:00 PM 55.1008 -18.9846 278° West  Level Estimated
Fri 08:00:00 PM 55.1171 -19.1938 278° West  Level Estimated
Fri 08:01:00 PM 55.1329 -19.4031 278° West  Level Estimated
Fri 08:02:00 PM 55.1485 -19.6127 277° West  Level Estimated
Fri 08:03:00 PM 55.1636 -19.8224 277° West  Level Estimated
Fri 08:04:00 PM 55.1784 -20.0322 277° West  Level Estimated
Fri 08:05:00 PM 55.1929 -20.2422 277° West  Level Estimated
Fri 08:06:00 PM 55.2069 -20.4524 277° West  Level Estimated
Fri 08:07:00 PM 55.2207 -20.6627 277° West  Level Estimated
Fri 08:08:00 PM 55.2340 -20.8731 276° West  Level Estimated
Fri 08:09:00 PM 55.2470 -21.0837 276° West  Level Estimated
Fri 08:09:00 PM 53.0000 -20.0000 284° West 451 519 30,000  Level ETMS Enhanced Traffic Management System
Fri 08:10:00 PM 55.2596 -21.2945 276° West  Level Estimated
Fri 08:11:00 PM 55.2719 -21.5053 276° West  Level Estimated
Fri 08:12:00 PM 55.2838 -21.7163 276° West  Level Estimated
Fri 08:13:00 PM 55.2953 -21.9274 276° West  Level Estimated
Fri 08:14:00 PM 55.3065 -22.1387 275° West  Level Estimated
Fri 08:15:00 PM 53.1702 -21.2218 283° West 451 519 30,000  Level FlightAware Transoceanic
Fri 08:16:00 PM 53.1973 -21.4263 282° West 451 519 30,000  Level FlightAware Transoceanic
Fri 08:17:00 PM 53.2241 -21.6312 282° West 451 519 30,000  Level FlightAware Transoceanic
Fri 08:18:00 PM 53.2505 -21.8362 282° West 451 519 30,000  Level FlightAware Transoceanic
Fri 08:19:00 PM 53.2766 -22.0416 282° West 451 519 30,000  Level FlightAware Transoceanic
Fri 08:20:00 PM 53.3023 -22.2471 282° West 451 519 30,000  Level FlightAware Transoceanic
Fri 08:21:00 PM 53.3277 -22.4529 282° West 451 519 30,000  Level FlightAware Transoceanic
Fri 08:22:00 PM 53.3527 -22.6590 281° West 451 519 30,000  Level FlightAware Transoceanic
Fri 08:23:00 PM 53.3774 -22.8653 281° West 451 519 30,000  Level FlightAware Transoceanic
Fri 08:24:00 PM 53.4017 -23.0718 281° West 451 519 30,000  Level FlightAware Transoceanic
Fri 08:25:00 PM 53.4257 -23.2786 281° West 451 519 30,000  Level FlightAware Transoceanic
Fri 08:26:00 PM 53.4493 -23.4856 281° West 451 519 30,000  Level FlightAware Transoceanic
Fri 08:27:00 PM 53.4725 -23.6929 281° West 451 519 30,000  Level FlightAware Transoceanic
Fri 08:28:00 PM 53.4954 -23.9003 280° West 451 519 30,000  Level FlightAware Transoceanic
Fri 08:29:00 PM 53.5179 -24.1080 280° West 451 519 30,000  Level FlightAware Transoceanic
Fri 08:30:00 PM 53.5401 -24.3159 280° West 451 519 30,000  Level FlightAware Transoceanic
Fri 08:31:00 PM 53.5619 -24.5240 280° West 451 519 30,000  Level FlightAware Transoceanic
Fri 08:32:00 PM 53.5833 -24.7323 280° West 451 519 30,000  Level FlightAware Transoceanic
Fri 08:33:00 PM 53.6044 -24.9409 280° West 451 519 30,000  Level FlightAware Transoceanic
Fri 08:34:00 PM 53.6251 -25.1496 279° West 451 519 30,000  Level FlightAware Transoceanic
Fri 08:35:00 PM 53.6454 -25.3586 279° West 451 519 30,000  Level FlightAware Transoceanic
Fri 08:36:00 PM 53.6654 -25.5677 279° West 451 519 30,000  Level FlightAware Transoceanic
Fri 08:37:00 PM 53.6850 -25.7771 279° West 451 519 30,000  Level FlightAware Transoceanic
Fri 08:38:00 PM 53.7043 -25.9866 279° West 451 519 30,000  Level FlightAware Transoceanic
Fri 08:39:00 PM 53.7232 -26.1963 279° West 451 519 30,000  Level FlightAware Transoceanic
Fri 08:40:00 PM 53.7417 -26.4062 278° West 451 519 30,000  Level FlightAware Transoceanic
Fri 08:41:00 PM 53.7599 -26.6163 278° West 451 519 30,000  Level FlightAware Transoceanic
Fri 08:42:00 PM 53.7776 -26.8266 278° West 451 519 30,000  Level FlightAware Transoceanic
Fri 08:43:00 PM 53.7951 -27.0371 278° West 451 519 30,000  Level FlightAware Transoceanic
Fri 08:44:00 PM 53.8121 -27.2477 278° West 451 519 30,000  Level FlightAware Transoceanic
Fri 08:45:00 PM 53.8288 -27.4585 278° West 451 519 30,000  Level FlightAware Transoceanic
Fri 08:46:00 PM 53.8451 -27.6695 277° West 451 519 30,000  Level FlightAware Transoceanic
Fri 08:47:00 PM 53.8611 -27.8806 277° West 451 519 30,000  Level FlightAware Transoceanic
Fri 08:48:00 PM 53.8766 -28.0919 277° West 451 519 30,000  Level FlightAware Transoceanic
Fri 08:49:00 PM 53.8918 -28.3033 277° West 451 519 30,000  Level FlightAware Transoceanic
Fri 08:50:00 PM 53.9067 -28.5149 277° West 451 519 30,000  Level FlightAware Transoceanic
Fri 08:51:00 PM 53.9211 -28.7266 277° West 451 519 30,000  Level FlightAware Transoceanic
Fri 08:52:00 PM 53.9352 -28.9385 276° West 451 519 30,000  Level FlightAware Transoceanic
Fri 08:53:00 PM 53.9489 -29.1506 276° West 451 519 30,000  Level FlightAware Transoceanic
Fri 08:54:00 PM 53.9622 -29.3627 276° West 451 519 30,000  Level FlightAware Transoceanic
Fri 08:55:00 PM 53.9752 -29.5750 276° West 451 519 30,000  Level FlightAware Transoceanic
Fri 08:56:00 PM 53.9878 -29.7875 276° West 451 519 30,000  Level FlightAware Transoceanic
Fri 08:57:00 PM 53.9995 -29.9919 276° West  Level FlightAware Approximate
Fri 08:58:00 PM 54.0110 -30.1965 276° West  Level FlightAware Approximate
Fri 08:59:00 PM 54.0077 -30.1887 274° West  Level FlightAware Approximate
Fri 09:00:00 PM 54.0157 -30.3938 274° West  Level FlightAware Approximate
Fri 09:01:00 PM 54.0234 -30.5989 274° West  Level FlightAware Approximate
Fri 09:02:00 PM 54.0307 -30.8042 274° West  Level FlightAware Approximate
Fri 09:03:00 PM 54.0377 -31.0094 273° West  Level FlightAware Approximate
Fri 09:04:00 PM 54.0443 -31.2148 273° West  Level FlightAware Approximate
Fri 09:05:00 PM 54.0506 -31.4202 273° West  Level FlightAware Approximate
Fri 09:06:00 PM 54.0566 -31.6257 273° West  Level FlightAware Approximate
Fri 09:07:00 PM 54.0621 -31.8312 273° West  Level FlightAware Approximate
Fri 09:08:00 PM 54.0674 -32.0368 273° West  Level FlightAware Approximate
Fri 09:09:00 PM 54.0723 -32.2424 272° West  Level FlightAware Approximate
Fri 09:10:00 PM 54.0768 -32.4481 272° West  Level FlightAware Approximate
Fri 09:11:00 PM 54.0810 -32.6538 272° West  Level FlightAware Approximate
Fri 09:12:00 PM 54.0848 -32.8596 272° West  Level FlightAware Approximate
Fri 09:13:00 PM 54.0883 -33.0654 272° West  Level FlightAware Approximate
Fri 09:14:00 PM 54.0914 -33.2712 272° West  Level FlightAware Approximate
Fri 09:15:00 PM 54.0942 -33.4771 271° West  Level FlightAware Approximate
Fri 09:16:00 PM 54.0966 -33.6829 271° West  Level FlightAware Approximate
Fri 09:17:00 PM 54.0987 -33.8889 271° West  Level FlightAware Approximate
Fri 09:18:00 PM 54.1004 -34.0948 271° West  Level FlightAware Approximate
Fri 09:19:00 PM 54.1018 -34.3007 271° West  Level FlightAware Approximate
Fri 09:20:00 PM 54.1028 -34.5067 271° West  Level FlightAware Approximate
Fri 09:21:00 PM 54.1035 -34.7127 270° West  Level FlightAware Approximate
Fri 09:22:00 PM 54.1038 -34.9186 270° West  Level FlightAware Approximate
Fri 09:23:00 PM 54.1037 -35.1246 270° West  Level FlightAware Approximate
Fri 09:24:00 PM 54.1033 -35.3306 270° West  Level FlightAware Approximate
Fri 09:25:00 PM 54.1026 -35.5365 270° West  Level FlightAware Approximate
Fri 09:26:00 PM 54.1015 -35.7425 270° West  Level FlightAware Approximate
Fri 09:27:00 PM 54.1001 -35.9484 269° West  Level FlightAware Approximate
Fri 09:28:00 PM 54.0983 -36.1543 269° West  Level FlightAware Approximate
Fri 09:29:00 PM 54.0961 -36.3602 269° West  Level FlightAware Approximate
Fri 09:30:00 PM 54.0936 -36.5661 269° West  Level FlightAware Approximate
Fri 09:31:00 PM 54.0908 -36.7720 269° West  Level FlightAware Approximate
Fri 09:32:00 PM 54.0876 -36.9778 269° West  Level FlightAware Approximate
Fri 09:33:00 PM 54.0840 -37.1836 268° West  Level FlightAware Approximate
Fri 09:34:00 PM 54.0801 -37.3894 268° West  Level FlightAware Approximate
Fri 09:35:00 PM 54.0759 -37.5951 268° West  Level FlightAware Approximate
Fri 09:36:00 PM 54.0713 -37.8008 268° West  Level FlightAware Approximate
Fri 09:37:00 PM 54.0663 -38.0064 268° West  Level FlightAware Approximate
Fri 09:38:00 PM 54.0610 -38.2119 268° West  Level FlightAware Approximate
Fri 09:39:00 PM 54.0554 -38.4175 267° West  Level FlightAware Approximate
Fri 09:40:00 PM 54.0494 -38.6229 267° West  Level FlightAware Approximate
Fri 09:41:00 PM 54.0430 -38.8283 267° West  Level FlightAware Approximate
Fri 09:42:00 PM 54.0363 -39.0337 267° West  Level FlightAware Approximate
Fri 09:43:00 PM 54.0292 -39.2389 267° West  Level FlightAware Approximate
Fri 09:44:00 PM 54.0218 -39.4441 267° West  Level FlightAware Approximate
Fri 09:45:00 PM 54.0141 -39.6493 266° West  Level FlightAware Approximate
Fri 09:46:00 PM 54.0060 -39.8543 266° West  Level FlightAware Approximate
Fri 09:47:00 PM 53.9964 -40.0591 264° West  Level FlightAware Approximate
Fri 09:48:00 PM 53.9838 -40.2634 264° West  Level FlightAware Approximate
Fri 09:49:00 PM 53.9708 -40.4676 264° West  Level FlightAware Approximate
Fri 09:50:00 PM 53.9575 -40.6716 264° West  Level FlightAware Approximate
Fri 09:51:00 PM 53.9439 -40.8755 264° West  Level FlightAware Approximate
Fri 09:52:00 PM 53.9299 -41.0793 263° West  Level FlightAware Approximate
Fri 09:53:00 PM 53.9156 -41.2829 264° West  Level FlightAware Approximate
Fri 09:54:00 PM 53.9018 -41.4866 264° West  Level FlightAware Approximate
Fri 09:55:00 PM 53.8876 -41.6901 263° West  Level FlightAware Approximate
Fri 09:56:00 PM 53.8731 -41.8935 263° West  Level FlightAware Approximate
Fri 09:57:00 PM 53.8583 -42.0967 263° West  Level FlightAware Approximate
Fri 09:58:00 PM 53.8431 -42.2998 263° West  Level FlightAware Approximate
Fri 09:59:00 PM 53.8276 -42.5028 263° West  Level FlightAware Approximate
Fri 10:00:00 PM 53.8117 -42.7056 263° West  Level FlightAware Approximate
Fri 10:01:00 PM 53.7955 -42.9082 262° West  Level FlightAware Approximate
Fri 10:02:00 PM 53.7790 -43.1107 262° West  Level FlightAware Approximate
Fri 10:03:00 PM 53.7621 -43.3130 262° West  Level FlightAware Approximate
Fri 10:04:00 PM 53.7449 -43.5152 262° West  Level FlightAware Approximate
Fri 10:05:00 PM 53.7273 -43.7172 262° West  Level FlightAware Approximate
Fri 10:06:00 PM 53.7094 -43.9190 262° West  Level FlightAware Approximate
Fri 10:07:00 PM 53.6911 -44.1207 261° West  Level FlightAware Approximate
Fri 10:08:00 PM 53.6726 -44.3221 261° West  Level FlightAware Approximate
Fri 10:09:00 PM 53.6536 -44.5234 261° West  Level FlightAware Approximate
Fri 10:10:00 PM 53.6344 -44.7245 261° West  Level FlightAware Approximate
Fri 10:11:00 PM 53.6148 -44.9255 261° West  Level FlightAware Approximate
Fri 10:12:00 PM 53.5948 -45.1262 261° West  Level FlightAware Approximate
Fri 10:13:00 PM 53.5746 -45.3268 260° West  Level FlightAware Approximate
Fri 10:14:00 PM 53.5540 -45.5271 260° West  Level FlightAware Approximate
Fri 10:15:00 PM 53.5330 -45.7273 260° West  Level FlightAware Approximate
Fri 10:16:00 PM 53.5118 -45.9272 260° West  Level FlightAware Approximate
Fri 10:17:00 PM 53.4902 -46.1270 260° West  Level FlightAware Approximate
Fri 10:18:00 PM 53.4682 -46.3265 260° West  Level FlightAware Approximate
Fri 10:19:00 PM 53.4459 -46.5259 259° West  Level FlightAware Approximate
Fri 10:20:00 PM 53.4234 -46.7250 259° West  Level FlightAware Approximate
Fri 10:21:00 PM 53.4004 -46.9239 259° West  Level FlightAware Approximate
Fri 10:22:00 PM 53.3772 -47.1226 259° West  Level FlightAware Approximate
Fri 10:23:00 PM 53.3536 -47.3211 259° West  Level FlightAware Approximate
Fri 10:24:00 PM 53.3297 -47.5194 259° West  Level FlightAware Approximate
Fri 10:25:00 PM 53.3054 -47.7174 258° West  Level FlightAware Approximate
Fri 10:26:00 PM 53.2808 -47.9152 258° West  Level FlightAware Approximate
Fri 10:27:00 PM 53.2559 -48.1128 258° West  Level FlightAware Approximate
Fri 10:28:00 PM 53.2307 -48.3102 258° West  Level FlightAware Approximate
Fri 10:29:00 PM 53.2051 -48.5073 258° West  Level FlightAware Approximate
Fri 10:30:00 PM 53.1793 -48.7042 258° West  Level FlightAware Approximate
Fri 10:31:00 PM 53.1531 -48.9008 258° West  Level FlightAware Approximate
Fri 10:32:00 PM 53.1265 -49.0972 257° West  Level FlightAware Approximate
Fri 10:33:00 PM 53.0997 -49.2934 257° West  Level FlightAware Approximate
Fri 10:34:00 PM 53.0725 -49.4893 257° West  Level FlightAware Approximate
Fri 10:35:00 PM 53.0450 -49.6849 257° West  Level FlightAware Approximate
Fri 10:36:00 PM 53.0172 -49.8803 257° West  Level FlightAware Approximate
Fri 10:37:00 PM 52.9840 -50.0730 250° West  Level FlightAware Approximate
Fri 10:38:00 PM 52.9426 -50.2613 250° West  Level FlightAware Approximate
Fri 10:39:00 PM 52.9008 -50.4493 250° West  Level FlightAware Approximate
Fri 10:40:00 PM 52.8587 -50.6369 250° West  Level FlightAware Approximate
Fri 10:41:00 PM 52.8164 -50.8241 250° West  Level FlightAware Approximate
Fri 10:42:00 PM 52.7738 -51.0109 249° West  Level FlightAware Approximate
Fri 10:43:00 PM 52.7308 -51.1974 249° West  Level FlightAware Approximate
Fri 10:43:39 PM 52.6833 -51.3333 248° West 410 472 30,000  Level Gander Center
Fri 10:44:00 PM 52.6876 -51.3836 249° West  Level FlightAware Approximate
Fri 10:44:39 PM 52.6333 -51.5167 246° West 410 472 30,000  Level Gander Center
Fri 10:45:00 PM 52.6441 -51.5693 249° West  Level FlightAware Approximate
Fri 10:45:39 PM 52.6167 -51.6833 261° West 420 483 31,300  Level Gander Center
Fri 10:46:00 PM 52.6003 -51.7547 249° West  Level FlightAware Approximate
Fri 10:46:39 PM 52.6000 -51.8833 262° West 400 460 32,000  Level Gander Center
Fri 10:47:00 PM 52.5562 -51.9397 249° West  Level FlightAware Approximate
Fri 10:47:39 PM 52.5667 -52.0500 252° West 400 460 32,000  Level Gander Center
Fri 10:48:00 PM 52.5118 -52.1243 249° West  Level FlightAware Approximate
Fri 10:48:39 PM 52.5500 -52.2167 261° West 390 449 32,000  Level Gander Center
Fri 10:49:00 PM 52.4671 -52.3086 248° West  Level FlightAware Approximate
Fri 10:49:39 PM 52.5333 -52.3833 261° West 380 437 32,000  Level Gander Center
Fri 10:50:39 PM 52.5000 -52.5667 253° West 400 460 32,000  Level Gander Center
Fri 10:51:39 PM 52.4667 -52.7333 252° West 400 460 32,000  Level Gander Center
Fri 10:52:39 PM 52.4500 -52.9000 261° West 390 449 32,000  Level Gander Center
Fri 10:53:39 PM 52.4333 -53.1000 262° West 390 449 32,000  Level Gander Center
Fri 10:54:39 PM 52.4000 -53.2333 248° West 370 426 32,000  Level Gander Center
Fri 10:55:39 PM 52.3833 -53.4333 262° West 380 437 32,000  Level Gander Center
Fri 10:56:39 PM 52.3667 -53.5833 260° West 380 437 32,000  Level Gander Center
Fri 10:57:39 PM 52.3167 -53.7833 248° West 380 437 32,000  Level Gander Center
Fri 10:58:39 PM 52.3000 -53.9167 258° West 370 426 32,000  Level Gander Center
Fri 10:59:39 PM 52.2833 -54.0833 261° West 380 437 32,000  Level Gander Center
Fri 11:00:39 PM 52.2500 -54.2500 252° West 380 437 32,000  Level Gander Center
Fri 11:01:39 PM 52.2333 -54.4167 261° West 380 437 32,000  Level Gander Center
Fri 11:02:39 PM 52.2000 -54.6167 255° West 380 437 32,000  Level Gander Center
Fri 11:03:39 PM 52.1833 -54.7833 261° West 390 449 32,000  Level Gander Center
Fri 11:04:39 PM 52.1500 -54.9500 252° West 380 437 32,000  Level Gander Center
Fri 11:05:39 PM 52.1333 -55.1000 260° West 390 449 32,000  Level Gander Center
Fri 11:06:39 PM 52.0833 -55.2833 246° West 380 437 32,000  Level Gander Center
Fri 11:07:39 PM 52.0667 -55.4500 261° West 390 449 32,000  Level Gander Center
Fri 11:08:39 PM 52.0333 -55.6000 250° West 370 426 32,000  Level Gander Center
Fri 11:09:39 PM 52.0167 -55.7833 262° West 380 437 32,000  Level Gander Center
Fri 11:10:39 PM 51.9833 -55.9500 252° West 390 449 32,000  Level Gander Center
Fri 11:11:41 PM 51.9500 -56.1333 254° West 390 449 32,000  Level Moncton Center
Fri 11:12:41 PM 51.9333 -56.2667 259° West 390 449 32,000  Level Moncton Center
Fri 11:13:41 PM 51.8833 -56.4667 248° West 390 449 32,000  Level Moncton Center
Fri 11:14:41 PM 51.8667 -56.6333 261° West 390 449 32,000  Level Moncton Center
Fri 11:15:41 PM 51.8500 -56.8000 261° West 390 449 32,000  Level Moncton Center
Fri 11:16:41 PM 51.8000 -56.9667 244° Southwest 400 460 32,000  Level Moncton Center
Fri 11:17:41 PM 51.7833 -57.1333 261° West 390 449 32,000  Level Moncton Center
Fri 11:18:41 PM 51.7500 -57.3167 254° West 400 460 32,000  Level Moncton Center
Fri 11:19:41 PM 51.7167 -57.5000 254° West 400 460 32,000  Level Moncton Center
Fri 11:20:41 PM 51.6833 -57.6500 250° West 400 460 32,000  Level Moncton Center
Fri 11:21:41 PM 51.6500 -57.8167 252° West 400 460 32,000  Level Moncton Center
Fri 11:22:41 PM 51.6167 -58.0000 254° West 400 460 32,000  Level Moncton Center
Fri 11:23:41 PM 51.5833 -58.1667 252° West 400 460 32,000  Level Moncton Center
Fri 11:24:41 PM 51.5500 -58.3333 252° West 410 472 32,000  Level Moncton Center
Fri 11:25:41 PM 51.5167 -58.5000 252° West 410 472 32,000  Level Moncton Center
Fri 11:26:41 PM 51.4833 -58.7000 255° West 400 460 32,000  Level Moncton Center
Fri 11:27:41 PM 51.4500 -58.8667 252° West 400 460 32,000  Level Moncton Center
Fri 11:28:41 PM 51.4167 -59.0333 252° West 400 460 32,000  Level Moncton Center
Fri 11:29:41 PM 51.3833 -59.2000 252° West 400 460 32,000  Level Moncton Center
Fri 11:30:41 PM 51.3500 -59.3500 250° West 400 460 32,000  Level Moncton Center
Fri 11:31:41 PM 51.3167 -59.5500 255° West 400 460 32,000  Level Moncton Center
Fri 11:32:41 PM 51.2667 -59.7167 244° Southwest 400 460 32,000  Level Moncton Center
Fri 11:33:41 PM 51.2500 -59.8833 261° West 410 472 32,000  Level Moncton Center
Fri 11:34:41 PM 51.2000 -60.0667 247° West 400 460 32,000  Level Moncton Center
Fri 11:35:41 PM 51.1833 -60.2333 261° West 410 472 32,000  Level Moncton Center
Fri 11:36:41 PM 51.1333 -60.4000 245° Southwest 410 472 32,000  Level Moncton Center
Fri 11:37:41 PM 51.1000 -60.5500 251° West 410 472 32,000  Level Moncton Center
Fri 11:38:41 PM 51.0667 -60.7500 255° West 400 460 32,000  Level Moncton Center
Fri 11:39:41 PM 51.0333 -60.9167 252° West 420 483 32,000  Level Moncton Center
Fri 11:40:41 PM 50.9833 -61.1000 247° West 410 472 32,000  Level Moncton Center
Fri 11:41:41 PM 50.9500 -61.2667 252° West 410 472 32,000  Level Moncton Center
Fri 11:42:41 PM 50.9167 -61.4167 251° West 410 472 32,000  Level Moncton Center
Fri 11:43:41 PM 50.8833 -61.5833 252° West 410 472 32,000  Level Moncton Center
Fri 11:44:41 PM 50.8333 -61.7667 247° West 410 472 32,000  Level Moncton Center
Fri 11:45:41 PM 50.7833 -61.9333 245° Southwest 410 472 32,000  Level Moncton Center
Fri 11:46:41 PM 50.7500 -62.1000 253° West 400 460 32,000  Level Moncton Center
Fri 11:47:41 PM 50.7167 -62.2833 254° West 410 472 32,000  Level Moncton Center
Fri 11:48:41 PM 50.6833 -62.4500 253° West 410 472 32,000  Level Moncton Center
Fri 11:49:41 PM 50.6333 -62.6333 247° West 410 472 32,000  Level Moncton Center
Fri 11:50:41 PM 50.6000 -62.7833 251° West 420 483 32,000  Level Moncton Center
Fri 11:51:41 PM 50.5500 -62.9667 247° West 420 483 32,000  Level Moncton Center
Fri 11:52:41 PM 50.5167 -63.1333 253° West 420 483 32,000  Level Moncton Center
Fri 11:53:41 PM 50.4667 -63.3167 247° West 420 483 32,000  Level Moncton Center
Fri 11:54:41 PM 50.4167 -63.4833 245° Southwest 420 483 32,000  Level Moncton Center
Fri 11:55:41 PM 50.4000 -63.6667 262° West 420 483 32,000  Level Moncton Center
Fri 11:56:20 PM 50.3500 -63.7167 213° Southwest 420 483 32,000  Level Montreal Center
Fri 11:57:20 PM 50.3000 -63.8833 245° Southwest 430 495 32,000  Level Montreal Center
Fri 11:58:20 PM 50.2667 -64.0500 253° West 430 495 32,000  Level Montreal Center
Fri 11:59:20 PM 50.2167 -64.2333 247° West 430 495 32,000  Level Montreal Center
Sat 12:00:20 AM 50.1667 -64.4000 245° Southwest 430 495 32,000  Level Montreal Center
Sat 12:01:20 AM 50.1500 -64.6000 263° West 430 495 32,000  Level Montreal Center
Sat 12:02:20 AM 50.1000 -64.7667 245° Southwest 430 495 32,000  Level Montreal Center
Sat 12:03:20 AM 50.0500 -64.9333 245° Southwest 430 495 32,000  Level Montreal Center
Sat 12:04:20 AM 50.0000 -65.1000 245° Southwest 430 495 32,000  Level Montreal Center
Sat 12:05:20 AM 49.9500 -65.3000 249° West 430 495 32,000  Level Montreal Center
Sat 12:06:20 AM 49.9000 -65.4667 245° Southwest 430 495 32,000  Level Montreal Center
Sat 12:07:20 AM 49.8500 -65.6333 245° Southwest 430 495 32,000  Level Montreal Center
Sat 12:08:20 AM 49.8167 -65.8000 253° West 430 495 32,000  Level Montreal Center
Sat 12:09:20 AM 49.7667 -65.9667 245° Southwest 430 495 32,000  Level Montreal Center
Sat 12:10:20 AM 49.7167 -66.1333 245° Southwest 430 495 32,000  Level Montreal Center
Sat 12:11:20 AM 49.6667 -66.3333 249° West 430 495 32,000  Level Montreal Center
Sat 12:12:20 AM 49.6333 -66.5000 253° West 440 506 32,000  Level Montreal Center
Sat 12:13:20 AM 49.5667 -66.6667 238° Southwest 440 506 32,000  Level Montreal Center
Sat 12:14:20 AM 49.5167 -66.8333 245° Southwest 440 506 32,000  Level Montreal Center
Sat 12:15:20 AM 49.4667 -67.0167 247° West 440 506 32,000  Level Montreal Center
Sat 12:16:20 AM 49.4333 -67.1833 253° West 450 518 32,000  Level Montreal Center
Sat 12:17:20 AM 49.3667 -67.3500 238° Southwest 450 518 32,000  Level Montreal Center
Sat 12:18:20 AM 49.3167 -67.5500 249° West 450 518 32,000  Level Montreal Center
Sat 12:19:20 AM 49.2667 -67.7167 245° Southwest 450 518 32,000  Level Montreal Center
Sat 12:20:20 AM 49.2167 -67.9000 247° West 450 518 32,000  Level Montreal Center
Sat 12:21:20 AM 49.1500 -68.0667 239° Southwest 460 529 32,000  Level Montreal Center
Sat 12:22:20 AM 49.1000 -68.2500 247° West 460 529 32,000  Level Montreal Center
Sat 12:23:20 AM 49.0667 -68.4333 255° West 460 529 32,000  Level Montreal Center
Sat 12:24:20 AM 49.0167 -68.6333 249° West 460 529 32,000  Level Montreal Center
Sat 12:25:20 AM 48.9667 -68.7833 243° Southwest 460 529 32,000  Level Montreal Center
Sat 12:26:20 AM 48.9167 -68.9833 249° West 460 529 32,000  Level Montreal Center
Sat 12:27:20 AM 48.8667 -69.1667 248° West 460 529 32,000  Level Montreal Center
Sat 12:28:20 AM 48.8167 -69.3500 248° West 460 529 32,000  Level Montreal Center
Sat 12:34:33 AM 48.4610 -70.4050 248° West 441 507 32,000  Level FlightAware ADS-B
Sat 12:35:12 AM 48.4560 -70.4170 238° Southwest 441 507 32,000  Level FlightAware ADS-B
Sat 12:36:08 AM 48.3530 -70.6420 235° Southwest 442 509 32,000  Level FlightAware ADS-B
Sat 12:36:47 AM 48.3100 -70.7360 236° Southwest 443 510 32,000  Level FlightAware ADS-B
Sat 12:37:34 AM 48.2510 -70.8640 235° Southwest 445 512 32,000  Level FlightAware ADS-B
Sat 12:38:19 AM 48.1990 -70.9750 235° Southwest 449 517 32,000  Level FlightAware ADS-B
Sat 12:39:12 AM 48.1350 -71.1150 236° Southwest 451 519 32,000  Level FlightAware ADS-B
Sat 12:39:53 AM 48.0840 -71.2240 235° Southwest 454 522 32,000  Level FlightAware ADS-B
Sat 12:40:33 AM 48.0350 -71.3280 235° Southwest 456 525 32,000 675 Level FlightAware ADS-B
Sat 12:41:13 AM 47.9870 -71.4300 235° Southwest 453 521 32,900 960 Climbing FlightAware ADS-B
Sat 12:42:38 AM 47.8890 -71.6400 235° Southwest 424 488 34,000 314 Climbing FlightAware ADS-B
Sat 12:44:43 AM 47.7450 -71.9430 235° Southwest 442 509 34,000  Level FlightAware ADS-B
Sat 12:48:18 AM 47.4850 -72.4820 235° Southwest 456 525 34,000  Level FlightAware ADS-B
Sat 12:49:03 AM 47.4290 -72.5950 234° Southwest 454 522 34,000  Level FlightAware ADS-B
Sat 12:49:43 AM 47.3810 -72.6950 235° Southwest 454 522 34,000  Level FlightAware ADS-B
Sat 12:50:23 AM 47.3310 -72.7960 234° Southwest 455 524 34,000  Level FlightAware ADS-B
Sat 12:51:08 AM 47.2760 -72.9080 234° Southwest 453 521 34,000  Level FlightAware ADS-B
Sat 12:51:48 AM 47.2260 -73.0080 234° Southwest 452 520 34,000  Level FlightAware ADS-B
Sat 12:52:28 AM 47.1770 -73.1060 234° Southwest 452 520 34,000  Level FlightAware ADS-B
Sat 12:53:13 AM 47.1220 -73.2170 234° Southwest 454 522 34,000  Level FlightAware ADS-B
Sat 12:53:58 AM 47.0660 -73.3290 234° Southwest 454 522 34,000  Level FlightAware ADS-B
Sat 12:54:38 AM 47.0160 -73.4280 233° Southwest 455 524 34,000  Level FlightAware ADS-B
Sat 12:55:13 AM 46.9730 -73.5140 234° Southwest 456 525 34,000  Level FlightAware ADS-B
Sat 12:57:23 AM 46.8090 -73.8350 233° Southwest 458 527 34,000  Level FlightAware ADS-B
Sat 12:58:08 AM 46.7520 -73.9470 233° Southwest 456 525 34,000  Level FlightAware ADS-B
Sat 12:58:52 AM 46.6960 -74.0550 233° Southwest 456 525 34,000  Level FlightAware ADS-B
Sat 12:59:28 AM 46.6510 -74.1420 233° Southwest 456 525 34,000  Level FlightAware ADS-B
Sat 01:00:16 AM 46.5900 -74.2610 233° Southwest 456 525 34,000  Level FlightAware ADS-B
Sat 01:00:56 AM 46.5380 -74.3590 232° Southwest 457 526 34,000  Level FlightAware ADS-B
Sat 01:01:40 AM 46.4820 -74.4660 233° Southwest 457 526 34,000  Level FlightAware ADS-B
Sat 01:02:18 AM 46.4360 -74.5560 233° Southwest 457 526 34,000  Level FlightAware ADS-B
Sat 01:03:00 AM 46.3810 -74.6600 233° Southwest 457 526 34,000  Level FlightAware ADS-B
Sat 01:03:46 AM 46.3210 -74.7720 232° Southwest 456 525 34,000  Level FlightAware ADS-B
Sat 01:04:28 AM 46.2670 -74.8750 233° Southwest 457 526 34,000  Level FlightAware ADS-B
Sat 01:05:02 AM 46.2240 -74.9570 233° Southwest 456 525 34,000  Level FlightAware ADS-B
Sat 01:05:58 AM 46.1520 -75.0890 232° Southwest 459 528 34,000  Level FlightAware ADS-B
Sat 01:06:47 AM 46.0890 -75.2080 233° Southwest 459 528 34,000  Level FlightAware ADS-B
Sat 01:07:27 AM 46.0370 -75.3040 232° Southwest 460 529 34,000  Level FlightAware ADS-B
Sat 01:08:07 AM 45.9850 -75.4020 233° Southwest 462 532 34,000  Level FlightAware ADS-B
Sat 01:08:52 AM 45.9250 -75.5100 231° Southwest 463 533 34,000  Level FlightAware ADS-B
Sat 01:09:32 AM 45.8720 -75.6080 232° Southwest 465 535 34,000  Level FlightAware ADS-B
Sat 01:10:12 AM 45.8190 -75.7060 232° Southwest 467 537 34,000  Level FlightAware ADS-B
Sat 01:10:57 AM 45.7590 -75.8150 232° Southwest 468 539 34,000  Level FlightAware ADS-B
Sat 01:11:37 AM 45.7070 -75.9090 232° Southwest 470 541 34,000  Level FlightAware ADS-B
Sat 01:12:09 AM 45.6740 -75.9690 232° Southwest 471 542 34,000  Level FlightAware ADS-B
Sat 01:12:54 AM 45.6080 -76.0880 232° Southwest 473 544 34,000  Level FlightAware ADS-B
Sat 01:13:40 AM 45.5490 -76.1950 232° Southwest 474 545 34,000  Level FlightAware ADS-B
Sat 01:14:25 AM 45.4880 -76.3040 231° Southwest 477 549 34,000  Level FlightAware ADS-B
Sat 01:15:00 AM 45.4390 -76.3920 232° Southwest 477 549 34,000  Level FlightAware ADS-B
Sat 01:15:40 AM 45.3830 -76.4910 231° Southwest 479 551 34,000  Level FlightAware ADS-B
Sat 01:16:51 AM 45.2850 -76.6650 231° Southwest 480 552 34,000  Level FlightAware ADS-B
Sat 01:17:40 AM 45.2160 -76.7870 231° Southwest 480 552 34,000  Level FlightAware ADS-B
Sat 01:18:15 AM 45.1670 -76.8720 231° Southwest 480 552 34,000  Level FlightAware ADS-B
Sat 01:19:00 AM 45.1100 -76.9710 231° Southwest 480 552 34,000  Level FlightAware ADS-B
Sat 01:19:44 AM 45.0430 -77.0880 231° Southwest 481 554 34,000  Level FlightAware ADS-B
Sat 01:20:26 AM 44.9790 -77.2000 231° Southwest 481 554 34,000  Level FlightAware ADS-B
Sat 01:21:02 AM 44.9260 -77.2920 231° Southwest 481 554 34,000  Level FlightAware ADS-B
Sat 01:21:44 AM 44.8690 -77.3890 230° Southwest 482 555 34,000  Level FlightAware ADS-B
Sat 01:22:30 AM 44.8060 -77.4970 231° Southwest 482 555 34,000  Level FlightAware ADS-B
Sat 01:23:14 AM 44.7360 -77.6180 231° Southwest 483 556 34,000  Level FlightAware ADS-B
Sat 01:23:58 AM 44.6750 -77.7220 231° Southwest 483 556 34,000  Level FlightAware ADS-B
Sat 01:24:54 AM 44.5940 -77.8590 230° Southwest 482 555 34,000  Level FlightAware ADS-B
Sat 01:25:27 AM 44.5490 -77.9350 230° Southwest 481 554 34,000  Level FlightAware ADS-B
Sat 01:26:15 AM 44.4910 -78.0320 230° Southwest 480 552 34,000  Level FlightAware ADS-B
Sat 01:27:00 AM 44.4280 -78.1390 231° Southwest 480 552 34,000  Level FlightAware ADS-B
Sat 01:27:40 AM 44.3710 -78.2350 230° Southwest 479 551 34,000  Level FlightAware ADS-B
Sat 01:28:20 AM 44.3140 -78.3290 230° Southwest 479 551 34,000  Level FlightAware ADS-B
Sat 01:29:05 AM 44.2500 -78.4350 230° Southwest 478 550 34,000  Level FlightAware ADS-B
Sat 01:29:45 AM 44.1940 -78.5280 230° Southwest 477 549 34,000  Level FlightAware ADS-B
Sat 01:30:25 AM 44.1380 -78.6210 230° Southwest 478 550 34,000  Level FlightAware ADS-B
Sat 01:31:10 AM 44.0730 -78.7280 230° Southwest 478 550 34,000  Level FlightAware ADS-B
Sat 01:31:55 AM 44.0090 -78.8330 230° Southwest 479 551 34,000  Level FlightAware ADS-B
Sat 01:32:31 AM 43.9600 -78.9120 229° Southwest 479 551 34,000  Level FlightAware ADS-B
Sat 01:33:15 AM 43.8940 -79.0210 230° Southwest 480 552 34,000  Level FlightAware ADS-B
Sat 01:34:00 AM 43.8290 -79.1260 229° Southwest 482 555 34,000  Level FlightAware ADS-B
Sat 01:34:40 AM 43.7700 -79.2210 229° Southwest 483 556 34,000  Level FlightAware ADS-B
Sat 01:35:20 AM 43.7120 -79.3150 230° Southwest 483 556 34,000  Level FlightAware ADS-B
Sat 01:36:01 AM 43.6560 -79.4050 229° Southwest 482 555 34,000  Level FlightAware ADS-B
Sat 01:36:45 AM 43.5920 -79.5070 229° Southwest 482 555 34,000  Level FlightAware ADS-B
Sat 01:37:25 AM 43.5310 -79.6050 229° Southwest 482 555 34,000  Level FlightAware ADS-B
Sat 01:38:10 AM 43.4650 -79.7080 229° Southwest 480 552 34,000  Level FlightAware ADS-B
Sat 01:38:55 AM 43.4000 -79.8110 229° Southwest 477 549 34,000  Level FlightAware ADS-B
Sat 01:39:35 AM 43.3420 -79.9040 229° Southwest 475 547 34,000  Level FlightAware ADS-B
Sat 01:40:15 AM 43.2840 -79.9950 229° Southwest 473 544 34,000  Level FlightAware ADS-B
Sat 01:40:55 AM 43.2260 -80.0860 229° Southwest 472 543 34,000  Level FlightAware ADS-B
Sat 01:41:35 AM 43.1680 -80.1770 229° Southwest 470 541 34,000  Level FlightAware ADS-B
Sat 01:42:20 AM 43.1040 -80.2770 229° Southwest 469 540 34,000  Level FlightAware ADS-B
Sat 01:43:00 AM 43.0470 -80.3650 228° Southwest 469 540 34,000  Level FlightAware ADS-B
Sat 01:43:45 AM 42.9820 -80.4660 229° Southwest 469 540 34,000  Level FlightAware ADS-B
Sat 01:44:25 AM 42.9250 -80.5540 229° Southwest 471 542 34,000  Level FlightAware ADS-B
Sat 01:48:50 AM 42.4950 -81.1230 224° Southwest 473 544 34,000  Level FlightAware ADS-B
Sat 01:49:26 AM 42.4500 -81.1720 219° Southwest 473 544 34,000  Level FlightAware ADS-B
Sat 01:50:27 AM 42.3440 -81.2870 219° Southwest 475 547 34,000  Level FlightAware ADS-B
Sat 01:51:33 AM 42.2350 -81.4070 219° Southwest 476 548 34,000  Level FlightAware ADS-B
Sat 01:52:22 AM 42.1520 -81.4970 219° Southwest 476 548 34,000  Level FlightAware ADS-B
Sat 01:53:18 AM 42.0450 -81.6130 219° Southwest 477 549 34,000  Level FlightAware ADS-B
Sat 01:53:57 AM 41.9810 -81.6830 219° Southwest 477 549 34,000  Level FlightAware ADS-B
Sat 01:54:41 AM 41.8950 -81.7760 219° Southwest 477 549 34,000  Level FlightAware ADS-B
Sat 01:55:50 AM 41.7740 -81.9050 219° Southwest 476 548 34,000  Level FlightAware ADS-B
Sat 01:56:33 AM 41.7020 -81.9820 219° Southwest 476 548 34,000 -143 Level FlightAware ADS-B
Sat 01:57:14 AM 41.6310 -82.0580 219° Southwest 472 543 33,800 -635 Descending FlightAware ADS-B
Sat 01:57:58 AM 41.5560 -82.1380 219° Southwest 471 542 33,100 -571 Descending FlightAware ADS-B
Sat 01:58:38 AM 41.4870 -82.2110 218° Southwest 475 547 33,000 -72 Descending FlightAware ADS-B
Sat 01:59:21 AM 41.4130 -82.2890 218° Southwest 474 545 33,000  Level FlightAware ADS-B
Sat 02:03:36 AM 40.9750 -82.7470 218° Southwest 470 541 33,000  Level FlightAware ADS-B
Sat 02:04:18 AM 40.9030 -82.8210 218° Southwest 469 540 33,000  Level FlightAware ADS-B
Sat 02:04:54 AM 40.8420 -82.8850 218° Southwest 468 539 33,000  Level FlightAware ADS-B
Sat 02:06:18 AM 40.6990 -83.0320 218° Southwest 467 537 33,000  Level FlightAware ADS-B
Sat 02:07:44 AM 40.5510 -83.1830 218° Southwest 465 535 33,000  Level FlightAware ADS-B
Sat 02:08:26 AM 40.4810 -83.2540 218° Southwest 464 534 33,000  Level FlightAware ADS-B
Sat 02:09:10 AM 40.4050 -83.3320 218° Southwest 465 535 33,000  Level FlightAware ADS-B
Sat 02:09:54 AM 40.3340 -83.4030 217° Southwest 465 535 33,000  Level FlightAware ADS-B
Sat 02:10:30 AM 40.2700 -83.4680 218° Southwest 464 534 33,000  Level FlightAware ADS-B
Sat 02:11:32 AM 40.1640 -83.5740 217° Southwest 461 531 33,000  Level FlightAware ADS-B
Sat 02:11:56 AM 40.1230 -83.6160 218° Southwest 460 529 33,000  Level FlightAware ADS-B
Sat 02:12:40 AM 40.0490 -83.6900 217° Southwest 458 527 33,000  Level FlightAware ADS-B
Sat 02:13:24 AM 39.9760 -83.7630 217° Southwest 457 526 33,000  Level FlightAware ADS-B
Sat 02:14:04 AM 39.9080 -83.8310 217° Southwest 456 525 33,000  Level FlightAware ADS-B
Sat 02:14:50 AM 39.8310 -83.9070 217° Southwest 454 522 33,000  Level FlightAware ADS-B
Sat 02:15:29 AM 39.7670 -83.9700 217° Southwest 452 520 33,000  Level FlightAware ADS-B
Sat 02:16:06 AM 39.7050 -84.0320 218° Southwest 451 519 33,000  Level FlightAware ADS-B
Sat 02:16:56 AM 39.6210 -84.1150 217° Southwest 449 517 33,000 -267 Level FlightAware ADS-B
Sat 02:17:36 AM 39.5550 -84.1800 217° Southwest 451 519 32,600 -1,571 Descending FlightAware ADS-B
Sat 02:18:20 AM 39.4830 -84.2500 217° Southwest 448 516 30,800 -2,455 Descending FlightAware ADS-B
Sat 02:19:04 AM 39.4120 -84.3190 217° Southwest 442 509 29,000 -1,793 Descending FlightAware ADS-B
Sat 02:19:47 AM 39.3460 -84.3820 216° Southwest 438 504 28,200 -1,309 Descending FlightAware ADS-B
Sat 02:20:54 AM 39.2470 -84.4800 217° Southwest 431 496 26,600 -2,752 Descending FlightAware ADS-B
Sat 02:21:36 AM 39.1690 -84.5560 217° Southwest 413 475 23,200 -2,483 Descending FlightAware ADS-B
Sat 02:22:21 AM 39.1080 -84.6130 216° Southwest 412 474 23,000 -148 Descending FlightAware ADS-B
Sat 02:22:57 AM 39.0610 -84.6570 216° Southwest 412 474 23,000  Level FlightAware ADS-B
Sat 02:23:57 AM 38.9820 -84.7310 216° Southwest 412 474 23,000  Level FlightAware ADS-B
Sat 02:24:34 AM 38.9330 -84.7760 216° Southwest 412 474 23,000 -4,596 Level FlightAware ADS-B
Sat 02:25:31 AM 38.8300 -84.8840 219° Southwest 362 417 15,800 -4,311 Descending FlightAware ADS-B
Sat 02:26:17 AM 38.7790 -84.9330 217° Southwest 362 417 15,600 -146 Descending FlightAware ADS-B
Sat 02:26:53 AM 38.7380 -84.9730 217° Southwest 362 417 15,600  Level FlightAware ADS-B
Sat 02:27:41 AM 38.6830 -85.0260 217° Southwest 362 417 15,600  Level FlightAware ADS-B
Sat 02:28:17 AM 38.6420 -85.0650 217° Southwest 362 417 15,600 -2,329 Level FlightAware ADS-B
Sat 02:29:06 AM 38.5570 -85.1450 216° Southwest 340 391 12,300 -2,870 Descending FlightAware ADS-B
Sat 02:29:49 AM 38.4950 -85.2060 218° Southwest 345 397 11,200 -1,535 Descending FlightAware ADS-B
Sat 02:32:00 AM 38.2770 -85.3938 216° Southwest  Level FlightAware Approximate
Sat 02:33:00 AM 38.2124 -85.5128 247° West  Level FlightAware Approximate
Sat 02:34:00 AM 38.2320 -85.6320 322° Northwest  Level FlightAware Approximate
Sat 02:35:00 AM 38.2257 -85.6932 211° Southwest  Level FlightAware Approximate
Sat 02:36:00 AM 38.1667 -85.7333 208° Southwest  Level FlightAware Approximate
Sat 02:37:00 AM 38.1741 -85.7365 208° Southwest  Level Estimated
Sat 02:38:00 AM 38.1741 -85.7365 208° Southwest  Level Estimated
Sat 02:39:00 AM 38.1741 -85.7365 208° Southwest  Level Estimated
Sat 02:40:00 AM 38.1741 -85.7365 208° Southwest  Level Estimated
Sat 02:41:00 AM 38.1741 -85.7365 208° Southwest  Level Estimated
Sat 02:42:00 AM 38.1741 -85.7365 208° Southwest  Level Estimated
Sat 02:43:00 AM 38.1741 -85.7365 208° Southwest  Level Estimated
Sat 02:44:00 AM 38.1741 -85.7365 208° Southwest  Level Estimated
Sat 02:45:00 AM 38.1741 -85.7365 208° Southwest  Level Estimated
Sat 02:46:00 AM 38.1741 -85.7365 208° Southwest  Level Estimated
Sat 02:47:00 AM 38.1741 -85.7365 208° Southwest  Level Estimated
Sat 02:48:00 AM 38.1741 -85.7365 208° Southwest  Level Estimated
Sat 02:49:00 AM 38.1741 -85.7365 208° Southwest  Level Estimated
Sat 02:50:00 AM 38.1741 -85.7365 208° Southwest  Level Estimated
Sat 02:51:00 AM 38.1741 -85.7365 208° Southwest  Level Estimated
Sat 02:52:00 AM 38.1741 -85.7365 208° Southwest  Level Estimated
Sat 02:53:00 AM 38.1741 -85.7365 208° Southwest  Level Estimated
Sat 02:54:00 AM 38.1741 -85.7365 208° Southwest  Level Estimated
Sat 02:55:00 AM 38.1741 -85.7365 208° Southwest  Level Estimated
Sat 02:56:00 AM 38.1741 -85.7365 208° Southwest  Level Estimated

Login

Don't have an account? Register now (free) for customized features, flight alerts, and more!